Terminal Aerodrome Forecast
Issued by NWS

Current Version | Previous Version | Text Only | Print | Product List | Glossary Off
Versions: 1 2 3 4 5 6 7 8 9 10 11 12 13 14 15 16 17 18 19 20 21 22 23 24 25 26 27 28 29 30 31 32 33 34 35 36 37 38 39 40 41 42 43 44 45 46 47 48 49 50

666
FTUS44 KHGX 051735
TAFIAH
TAF
KIAH 051735Z 0518/0624 06006KT P6SM VCSH OVC005
     FM052000 34007KT P6SM -DZ BKN007 OVC015
     FM060300 30006KT P6SM SCT007 BKN015
     FM060800 24005KT P6SM MIFG FEW015
     FM061500 24007KT P6SM SKC=

USA.gov is the U.S. government's official web portal to all federal, state and local government web resources and services.